createdAt,value
2022-12-12T00:00:25.483Z,21.80
2022-12-12T00:02:27.720Z,20.08
2022-12-12T00:04:29.939Z,20.10
2022-12-12T00:06:32.290Z,21.02
2022-12-12T00:10:36.571Z,19.73
2022-12-12T00:12:38.719Z,17.80
2022-12-12T00:14:40.842Z,20.63
2022-12-12T00:16:43.065Z,20.30
2022-12-12T00:18:45.417Z,19.90
2022-12-12T00:20:51.805Z,21.20
2022-12-12T00:22:53.971Z,21.75
2022-12-12T00:24:56.217Z,22.90
2022-12-12T00:26:58.374Z,22.27
2022-12-12T00:29:01.202Z,20.92
2022-12-12T00:31:03.425Z,19.20
2022-12-12T00:33:05.577Z,19.85
2022-12-12T00:35:07.980Z,21.25
2022-12-12T00:39:18.033Z,19.50
2022-12-12T00:41:20.784Z,21.10
2022-12-12T00:45:25.185Z,16.20
2022-12-12T00:49:29.461Z,19.67
2022-12-12T00:51:32.247Z,19.52
2022-12-12T00:53:34.431Z,20.38
2022-12-12T00:55:36.561Z,20.05
2022-12-12T00:57:38.997Z,21.20
2022-12-12T01:01:45.379Z,21.63
2022-12-12T01:03:47.553Z,21.50
2022-12-12T01:05:49.684Z,20.88
2022-12-12T01:07:51.921Z,19.52
2022-12-12T01:09:54.102Z,21.65
2022-12-12T01:11:56.211Z,22.25
2022-12-12T01:13:58.415Z,20.27
2022-12-12T01:16:00.614Z,20.02
2022-12-12T01:18:02.792Z,19.45
2022-12-12T01:20:12.171Z,18.80
2022-12-12T01:22:14.907Z,21.05
2022-12-12T01:24:17.083Z,19.90
2022-12-12T01:26:20.601Z,19.42
2022-12-12T01:28:22.724Z,20.65
2022-12-12T01:30:24.902Z,18.90
2022-12-12T01:32:27.029Z,19.13
2022-12-12T01:34:29.170Z,18.75
2022-12-12T01:36:31.317Z,19.88
2022-12-12T01:38:33.469Z,20.55
2022-12-12T01:40:35.646Z,16.33
2022-12-12T01:42:37.771Z,20.27
2022-12-12T01:44:41.823Z,16.77
2022-12-12T01:46:45.074Z,22.13
2022-12-12T01:48:50.761Z,21.35
2022-12-12T01:50:53.253Z,18.88
2022-12-12T01:52:55.396Z,19.05
2022-12-12T01:54:59.502Z,20.90
2022-12-12T01:57:04.422Z,21.58
2022-12-12T01:59:07.905Z,17.85
2022-12-12T02:01:10.642Z,17.65
2022-12-12T02:03:12.801Z,18.60
2022-12-12T02:05:20.585Z,17.40
2022-12-12T02:07:22.688Z,20.23
2022-12-12T02:09:25.373Z,22.10
2022-12-12T02:11:28.735Z,19.13
2022-12-12T02:13:32.726Z,19.48
2022-12-12T02:15:41.809Z,20.38
2022-12-12T02:17:46.773Z,20.80
2022-12-12T02:20:15.723Z,18.45
2022-12-12T02:22:18.935Z,19.42
2022-12-12T02:24:43.881Z,19.02
2022-12-12T02:26:49.112Z,18.70
2022-12-12T02:28:57.296Z,17.75
2022-12-12T02:30:59.401Z,20.52
2022-12-12T02:33:01.620Z,18.88
2022-12-12T02:35:12.200Z,18.90
2022-12-12T02:37:14.524Z,20.45
2022-12-12T02:39:55.278Z,18.98
2022-12-12T02:42:00.248Z,18.38
2022-12-12T02:44:20.740Z,17.67
2022-12-12T02:46:52.134Z,17.95
2022-12-12T02:49:00.158Z,19.23
2022-12-12T02:51:03.505Z,22.20
2022-12-12T02:53:06.444Z,20.52
2022-12-12T02:55:08.870Z,18.42
2022-12-12T02:59:15.487Z,20.17
2022-12-12T03:01:20.429Z,17.02
2022-12-12T03:03:47.187Z,18.38
2022-12-12T03:06:13.830Z,18.73
2022-12-12T03:08:16.069Z,21.10
2022-12-12T03:10:30.739Z,18.38
2022-12-12T03:12:49.733Z,18.63
2022-12-12T03:14:55.030Z,17.88
2022-12-12T03:16:57.126Z,20.58
2022-12-12T03:19:02.425Z,21.75
2022-12-12T03:21:06.930Z,18.95
2022-12-12T03:23:10.227Z,19.42
2022-12-12T03:25:22.252Z,19.30
2022-12-12T03:27:36.360Z,19.85
2022-12-12T03:29:43.870Z,17.80
2022-12-12T03:31:48.134Z,21.65
2022-12-12T03:33:57.838Z,20.30
2022-12-12T03:36:18.360Z,20.02
2022-12-12T03:38:22.875Z,19.48
2022-12-12T03:40:48.474Z,20.15
2022-12-12T03:43:01.026Z,23.42
2022-12-12T03:47:08.228Z,18.33
2022-12-12T03:49:10.324Z,20.13
2022-12-12T03:51:13.805Z,21.25
2022-12-12T03:53:19.470Z,19.92
2022-12-12T03:55:25.107Z,21.95
2022-12-12T03:57:33.468Z,19.80
2022-12-12T03:59:38.806Z,20.13
2022-12-12T04:01:44.945Z,16.95
2022-12-12T04:03:53.252Z,18.05
2022-12-12T04:06:25.472Z,17.83
2022-12-12T04:08:28.327Z,19.17
2022-12-12T04:10:52.990Z,19.17
2022-12-12T04:13:10.215Z,19.02
2022-12-12T04:15:18.253Z,22.75
2022-12-12T04:17:25.363Z,17.83
2022-12-12T04:19:54.141Z,21.95
2022-12-12T04:22:19.062Z,20.65
2022-12-12T04:24:35.510Z,18.35
2022-12-12T04:26:39.713Z,24.15
2022-12-12T04:28:44.459Z,18.20
2022-12-12T04:30:46.690Z,22.95
2022-12-12T04:33:04.283Z,19.73
2022-12-12T04:35:06.412Z,18.20
2022-12-12T04:37:11.239Z,19.90
2022-12-12T04:39:15.099Z,17.75
2022-12-12T04:41:18.062Z,17.15
2022-12-12T04:43:23.678Z,17.92
2022-12-12T04:45:29.366Z,16.25
2022-12-12T04:47:31.975Z,16.38
2022-12-12T04:49:36.456Z,17.35
2022-12-12T04:51:44.525Z,19.98
2022-12-12T04:53:49.482Z,16.88
2022-12-12T04:55:54.198Z,16.40
2022-12-12T04:57:56.726Z,17.77
2022-12-12T04:59:58.923Z,18.10
2022-12-12T05:02:01.133Z,17.60
2022-12-12T05:06:08.624Z,16.33
2022-12-12T05:08:17.808Z,17.83
2022-12-12T05:10:20.202Z,17.67
2022-12-12T05:14:24.357Z,19.67
2022-12-12T05:16:28.418Z,15.77
2022-12-12T05:18:31.349Z,16.63
2022-12-12T05:20:33.701Z,15.85
2022-12-12T05:24:38.142Z,14.45
2022-12-12T05:26:41.038Z,15.02
2022-12-12T05:28:43.187Z,17.88
2022-12-12T05:30:45.384Z,15.02
2022-12-12T05:32:47.554Z,14.93
2022-12-12T05:34:49.700Z,15.02
2022-12-12T05:36:52.009Z,15.55
2022-12-12T05:40:56.254Z,13.35
2022-12-12T05:42:58.559Z,14.65
2022-12-12T05:47:03.234Z,14.02
2022-12-12T05:49:05.741Z,14.95
2022-12-12T05:51:07.997Z,12.35
2022-12-12T05:53:10.196Z,11.63
2022-12-12T05:55:12.637Z,12.30
2022-12-12T05:57:15.004Z,12.75
2022-12-12T05:59:17.181Z,12.30
2022-12-12T06:01:19.347Z,11.80
2022-12-12T06:03:21.625Z,11.68
2022-12-12T06:07:25.841Z,13.40
2022-12-12T06:09:28.009Z,13.75
2022-12-12T06:11:30.136Z,17.58
2022-12-12T06:13:32.333Z,12.30
2022-12-12T06:15:34.661Z,13.60
2022-12-12T06:19:38.978Z,10.85
2022-12-12T06:21:41.182Z,12.48
2022-12-12T06:23:43.583Z,11.88
2022-12-12T06:25:45.711Z,13.55
2022-12-12T06:27:47.908Z,11.63
2022-12-12T06:29:50.023Z,11.35
2022-12-12T06:31:52.195Z,13.90
2022-12-12T06:33:54.412Z,10.85
2022-12-12T06:36:19.058Z,13.18
2022-12-12T06:38:21.257Z,11.70
2022-12-12T06:40:23.461Z,11.75
2022-12-12T06:42:25.637Z,11.23
2022-12-12T06:44:27.738Z,14.30
2022-12-12T06:46:30.704Z,11.32
2022-12-12T06:48:33.673Z,10.35
2022-12-12T06:50:39.597Z,13.60
2022-12-12T06:52:41.866Z,10.57
2022-12-12T06:54:44.032Z,11.20
2022-12-12T06:56:48.756Z,13.77
2022-12-12T06:58:51.947Z,12.55
2022-12-12T07:00:54.505Z,12.98
2022-12-12T07:02:56.729Z,10.73
2022-12-12T07:04:59.005Z,11.00
2022-12-12T07:07:01.199Z,13.30
2022-12-12T07:09:03.359Z,12.02
2022-12-12T07:11:06.689Z,12.48
2022-12-12T07:13:08.917Z,13.73
2022-12-12T07:15:11.572Z,12.45
2022-12-12T07:17:13.915Z,11.88
2022-12-12T07:19:16.226Z,11.63
2022-12-12T07:23:20.475Z,12.83
2022-12-12T07:25:22.603Z,12.75
2022-12-12T07:27:24.823Z,10.25
2022-12-12T07:29:27.078Z,12.20
2022-12-12T07:31:29.277Z,11.00
2022-12-12T07:33:42.631Z,10.85
2022-12-12T07:35:46.291Z,15.15
2022-12-12T07:39:50.531Z,13.38
2022-12-12T07:41:52.681Z,11.63
2022-12-12T07:43:54.923Z,10.40
2022-12-12T07:45:57.060Z,10.13
2022-12-12T07:47:59.328Z,11.40
2022-12-12T07:50:01.483Z,9.13
2022-12-12T07:52:03.726Z,8.07
2022-12-12T07:54:06.621Z,8.30
2022-12-12T07:56:10.039Z,8.93
2022-12-12T07:58:12.218Z,8.98
2022-12-12T08:00:14.602Z,13.73
2022-12-12T08:04:18.954Z,10.25
2022-12-12T08:06:21.751Z,10.57
2022-12-12T08:08:23.884Z,10.73
2022-12-12T08:10:26.236Z,8.00
2022-12-12T08:12:31.828Z,8.90
2022-12-12T08:14:34.103Z,10.00
2022-12-12T08:18:38.271Z,8.80
2022-12-12T08:20:41.237Z,9.68
2022-12-12T08:22:43.443Z,8.27
2022-12-12T08:24:45.684Z,8.50
2022-12-12T08:26:49.944Z,9.15
2022-12-12T08:28:52.119Z,6.88
2022-12-12T08:30:54.291Z,7.53
2022-12-12T08:32:56.480Z,7.90
2022-12-12T08:34:59.255Z,8.15
2022-12-12T08:37:01.393Z,9.60
2022-12-12T08:39:07.021Z,10.20
2022-12-12T08:41:09.930Z,10.02
2022-12-12T08:43:12.217Z,8.00
2022-12-12T08:47:16.654Z,9.82
2022-12-12T08:49:18.795Z,8.65
2022-12-12T08:51:20.977Z,9.15
2022-12-12T08:53:23.601Z,9.23
2022-12-12T08:55:25.881Z,8.65
2022-12-12T08:59:30.237Z,9.80
2022-12-12T09:01:32.581Z,9.10
2022-12-12T09:05:36.825Z,9.97
2022-12-12T09:07:38.987Z,8.13
2022-12-12T09:09:41.174Z,8.20
2022-12-12T09:11:43.323Z,8.00
2022-12-12T09:13:45.699Z,8.25
2022-12-12T09:17:50.243Z,8.65
2022-12-12T09:19:52.407Z,8.52
2022-12-12T09:21:54.726Z,7.38
2022-12-12T09:25:59.032Z,8.17
2022-12-12T09:28:01.246Z,9.68
2022-12-12T09:30:03.759Z,9.18
2022-12-12T09:32:06.681Z,9.18
2022-12-12T09:34:08.847Z,8.43
2022-12-12T09:36:15.076Z,8.35
2022-12-12T09:38:19.204Z,6.10
2022-12-12T09:40:23.660Z,9.63
2022-12-12T09:42:27.641Z,8.10
2022-12-12T09:44:29.849Z,7.78
2022-12-12T09:46:31.986Z,10.82
2022-12-12T09:48:44.595Z,6.15
2022-12-12T09:52:49.040Z,6.63
2022-12-12T09:56:56.356Z,4.73
2022-12-12T09:58:58.519Z,6.07
2022-12-12T10:01:07.552Z,8.93
2022-12-12T10:03:15.554Z,5.65
2022-12-12T10:05:20.755Z,6.97
2022-12-12T10:07:26.050Z,6.30
2022-12-12T10:09:46.846Z,8.70
2022-12-12T10:11:52.819Z,10.25
2022-12-12T10:13:55.723Z,7.35
2022-12-12T10:16:04.689Z,11.20
2022-12-12T10:18:18.711Z,8.75
2022-12-12T10:20:29.493Z,7.70
2022-12-12T10:22:43.541Z,8.18
2022-12-12T10:24:57.537Z,8.13
2022-12-12T10:27:01.654Z,7.32
2022-12-12T10:29:11.552Z,7.70
2022-12-12T10:31:22.944Z,8.88
2022-12-12T10:33:31.309Z,6.75
2022-12-12T10:35:38.839Z,7.05
2022-12-12T10:37:59.169Z,9.25
2022-12-12T10:40:12.847Z,6.32
2022-12-12T10:42:24.528Z,8.18
2022-12-12T10:44:47.510Z,7.63
2022-12-12T10:47:06.025Z,8.90
2022-12-12T10:49:18.396Z,10.15
2022-12-12T10:51:23.790Z,7.15
2022-12-12T10:53:25.921Z,7.85
2022-12-12T10:55:46.355Z,7.22
2022-12-12T10:57:48.568Z,8.10
2022-12-12T10:59:54.709Z,12.48
2022-12-12T11:02:10.179Z,9.40
2022-12-12T11:04:15.452Z,7.03
2022-12-12T11:06:27.593Z,10.23
2022-12-12T11:08:33.630Z,9.30
2022-12-12T11:10:36.838Z,11.70
2022-12-12T11:12:39.153Z,8.70
2022-12-12T11:14:49.526Z,9.13
2022-12-12T11:16:51.733Z,10.00
2022-12-12T11:18:58.630Z,9.52
2022-12-12T11:21:06.611Z,11.10
2022-12-12T11:23:18.351Z,11.77
2022-12-12T11:25:29.715Z,8.32
2022-12-12T11:27:41.660Z,7.85
2022-12-12T11:29:43.801Z,8.82
2022-12-12T11:31:46.013Z,10.90
2022-12-12T11:33:50.486Z,8.55
2022-12-12T11:35:56.414Z,7.13
2022-12-12T11:38:01.269Z,6.82
2022-12-12T11:40:03.557Z,9.55
2022-12-12T11:42:17.231Z,9.65
2022-12-12T11:44:25.785Z,6.50
2022-12-12T11:46:29.427Z,10.30
2022-12-12T11:48:34.620Z,8.23
2022-12-12T11:50:46.036Z,9.65
2022-12-12T11:52:48.940Z,7.70
2022-12-12T11:54:52.721Z,6.30
2022-12-12T11:56:54.867Z,6.38
2022-12-12T11:58:56.980Z,5.68
2022-12-12T12:00:59.089Z,7.13
2022-12-12T12:03:01.287Z,9.30
2022-12-12T12:05:18.837Z,10.60
2022-12-12T12:07:23.791Z,8.07
2022-12-12T12:09:37.635Z,6.30
2022-12-12T12:11:58.379Z,8.25
2022-12-12T12:14:03.562Z,8.65
2022-12-12T12:16:05.641Z,7.65
2022-12-12T12:18:17.353Z,7.57
2022-12-12T12:20:23.343Z,8.47
2022-12-12T12:22:31.605Z,7.80
2022-12-12T12:24:52.393Z,7.78
2022-12-12T12:27:02.423Z,7.75
2022-12-12T12:29:07.980Z,9.07
2022-12-12T12:31:12.910Z,6.85
2022-12-12T12:33:41.846Z,7.57
2022-12-12T12:36:07.347Z,6.22
2022-12-12T12:38:22.569Z,6.50
2022-12-12T12:40:27.808Z,11.45
2022-12-12T12:42:39.003Z,6.63
2022-12-12T12:44:41.141Z,7.18
2022-12-12T12:46:43.257Z,7.40
2022-12-12T12:48:47.472Z,6.60
2022-12-12T12:51:01.724Z,6.00
2022-12-12T12:53:24.068Z,7.63
2022-12-12T12:55:29.786Z,7.82
2022-12-12T12:57:37.056Z,7.05
2022-12-12T12:59:44.697Z,7.43
2022-12-12T13:01:50.564Z,6.05
2022-12-12T13:04:03.654Z,8.30
2022-12-12T13:06:09.168Z,6.93
2022-12-12T13:08:29.866Z,7.50
2022-12-12T13:10:32.789Z,8.00
2022-12-12T13:12:34.904Z,7.75
2022-12-12T13:14:47.164Z,6.30
2022-12-12T13:16:49.711Z,7.80
2022-12-12T13:20:58.883Z,9.57
2022-12-12T13:23:07.074Z,7.40
2022-12-12T13:25:16.367Z,7.82
2022-12-12T13:27:18.597Z,7.65
2022-12-12T13:29:35.881Z,7.15
2022-12-12T13:31:40.891Z,6.57
2022-12-12T13:33:47.894Z,7.72
2022-12-12T13:35:54.674Z,8.23
2022-12-12T13:37:57.057Z,8.45
2022-12-12T13:40:00.446Z,8.65
2022-12-12T13:42:03.985Z,9.13
2022-12-12T13:44:06.225Z,8.15
2022-12-12T13:46:24.355Z,7.97
2022-12-12T13:48:29.431Z,8.15
2022-12-12T13:50:31.619Z,7.15
2022-12-12T13:52:41.073Z,7.93
2022-12-12T13:54:44.134Z,10.75
2022-12-12T13:56:49.416Z,9.13
2022-12-12T13:58:51.535Z,7.93
2022-12-12T14:01:13.689Z,9.23
2022-12-12T14:03:27.399Z,9.05
2022-12-12T14:05:29.705Z,11.50
2022-12-12T14:07:32.800Z,10.45
2022-12-12T14:09:48.287Z,8.15
2022-12-12T14:11:51.140Z,7.53
2022-12-12T14:14:01.928Z,9.65
2022-12-12T14:16:06.052Z,7.05
2022-12-12T14:18:18.653Z,7.93
2022-12-12T14:20:26.891Z,10.23
2022-12-12T14:22:49.249Z,9.23
2022-12-12T14:25:09.289Z,14.50
2022-12-12T14:27:11.808Z,11.25
2022-12-12T14:31:17.517Z,14.52
2022-12-12T14:33:33.459Z,15.45
2022-12-12T14:35:39.960Z,16.73
2022-12-12T14:37:45.817Z,21.40
2022-12-12T14:39:58.316Z,19.38
2022-12-12T14:42:03.510Z,14.25
2022-12-12T14:44:36.588Z,14.30
2022-12-12T14:46:31.492Z,11.45
2022-12-12T14:50:35.974Z,8.77
2022-12-12T14:54:40.341Z,11.98
2022-12-12T14:56:50.782Z,7.80
2022-12-12T14:58:54.627Z,7.68
2022-12-12T15:00:58.564Z,10.35
2022-12-12T15:03:01.090Z,9.25
2022-12-12T15:05:05.130Z,10.07
2022-12-12T15:07:22.434Z,13.32
2022-12-12T15:09:38.834Z,17.67
2022-12-12T15:11:41.124Z,20.00
2022-12-12T15:13:52.548Z,15.55
2022-12-12T15:15:54.741Z,13.95
2022-12-12T15:17:58.378Z,14.85
2022-12-12T15:20:02.296Z,11.98
2022-12-12T15:22:10.025Z,12.43
2022-12-12T15:24:29.097Z,18.55
2022-12-12T15:26:31.333Z,20.92
2022-12-12T15:28:33.470Z,26.55
2022-12-12T15:30:39.284Z,30.00
2022-12-12T15:32:46.490Z,26.65
2022-12-12T15:34:59.702Z,21.23
2022-12-12T15:37:11.736Z,20.05
2022-12-12T15:39:17.765Z,14.35
2022-12-12T15:41:20.207Z,15.60
2022-12-12T15:45:25.770Z,16.27
2022-12-12T15:49:40.149Z,17.97
2022-12-12T15:51:42.300Z,14.40
2022-12-12T15:53:48.347Z,13.18
2022-12-12T15:55:50.655Z,15.95
2022-12-12T15:57:53.253Z,16.65
2022-12-12T16:00:02.658Z,18.95
2022-12-12T16:02:33.964Z,21.13
2022-12-12T16:04:36.395Z,21.38
2022-12-12T16:09:10.100Z,20.38
2022-12-12T16:11:33.563Z,20.67
2022-12-12T16:13:40.109Z,18.38
2022-12-12T16:15:42.270Z,19.85
2022-12-12T16:17:57.801Z,19.38
2022-12-12T16:20:05.612Z,19.33
2022-12-12T16:22:13.058Z,22.35
2022-12-12T16:24:21.554Z,24.58
2022-12-12T16:26:23.694Z,26.65
2022-12-12T16:28:27.154Z,27.30
2022-12-12T16:30:29.360Z,28.77
2022-12-12T16:32:31.505Z,26.42
2022-12-12T16:34:33.677Z,25.58
2022-12-12T16:36:41.619Z,22.75
2022-12-12T16:38:44.543Z,27.00
2022-12-12T16:40:47.520Z,25.25
2022-12-12T16:42:54.038Z,23.48
2022-12-12T16:44:56.179Z,25.88
2022-12-12T16:46:58.304Z,27.50
2022-12-12T16:49:04.608Z,24.33
2022-12-12T16:51:08.173Z,27.83
2022-12-12T16:53:10.508Z,24.88
2022-12-12T16:57:14.721Z,20.50
2022-12-12T16:59:16.875Z,21.40
2022-12-12T17:01:19.157Z,21.27
2022-12-12T17:05:24.303Z,19.08
2022-12-12T17:07:26.456Z,20.05
2022-12-12T17:09:30.283Z,28.75
2022-12-12T17:11:32.492Z,24.88
2022-12-12T17:13:34.681Z,32.78
2022-12-12T17:15:36.841Z,28.88
2022-12-12T17:17:39.001Z,34.65
2022-12-12T17:19:41.244Z,31.65
2022-12-12T17:21:43.954Z,40.97
2022-12-12T17:23:46.097Z,49.17
2022-12-12T17:25:48.363Z,40.05
2022-12-12T17:29:52.574Z,21.00
2022-12-12T17:31:54.858Z,29.05
2022-12-12T17:36:03.244Z,17.85
2022-12-12T17:38:05.822Z,18.15
2022-12-12T17:40:09.595Z,19.45
2022-12-12T17:42:11.862Z,19.20
2022-12-12T17:46:17.161Z,19.48
2022-12-12T17:48:19.371Z,20.95
2022-12-12T17:50:21.503Z,31.08
2022-12-12T17:52:23.752Z,21.02
2022-12-12T17:54:25.934Z,21.33
2022-12-12T17:56:28.136Z,24.90
2022-12-12T17:58:32.512Z,24.25
2022-12-12T18:00:35.751Z,23.65
2022-12-12T18:02:39.524Z,25.10
2022-12-12T18:04:41.721Z,29.08
2022-12-12T18:08:46.447Z,33.53
2022-12-12T18:10:48.561Z,35.63
2022-12-12T18:12:51.935Z,34.85
2022-12-12T18:14:54.360Z,28.58
2022-12-12T18:18:58.773Z,31.25
2022-12-12T18:23:03.055Z,31.30
2022-12-12T18:27:07.397Z,27.55
2022-12-12T18:31:11.734Z,25.70
2022-12-12T18:33:13.874Z,30.48
2022-12-12T18:35:16.039Z,29.67
2022-12-12T18:37:18.171Z,22.88
2022-12-12T18:39:20.388Z,22.33
2022-12-12T18:43:25.666Z,24.17
2022-12-12T18:45:27.824Z,24.42
2022-12-12T18:47:30.625Z,25.55
2022-12-12T18:49:32.774Z,25.10
2022-12-12T18:51:36.277Z,31.83
2022-12-12T18:53:39.064Z,30.05
2022-12-12T18:55:44.866Z,32.45
2022-12-12T18:57:47.180Z,31.85
2022-12-12T19:01:51.667Z,28.77
2022-12-12T19:03:56.355Z,31.48
2022-12-12T19:05:58.569Z,31.33
2022-12-12T19:10:02.863Z,31.00
2022-12-12T19:12:05.749Z,30.10
2022-12-12T19:14:08.684Z,26.50
2022-12-12T19:16:12.018Z,26.35
2022-12-12T19:18:14.236Z,26.85
2022-12-12T19:20:16.892Z,25.52
2022-12-12T19:22:43.901Z,27.65
2022-12-12T19:24:41.453Z,27.55
2022-12-12T19:28:48.203Z,35.25
2022-12-12T19:30:50.376Z,32.35
2022-12-12T19:34:55.026Z,32.78
2022-12-12T19:36:57.200Z,33.63
2022-12-12T19:39:00.864Z,31.30
2022-12-12T19:41:04.346Z,30.52
2022-12-12T19:43:06.584Z,28.70
2022-12-12T19:47:10.938Z,30.55
2022-12-12T19:51:19.207Z,26.25
2022-12-12T19:53:21.337Z,23.98
2022-12-12T19:55:23.491Z,29.05
2022-12-12T19:59:28.563Z,26.60
2022-12-12T20:01:32.173Z,30.17
2022-12-12T20:03:34.440Z,26.88
2022-12-12T20:07:38.837Z,25.60
2022-12-12T20:09:41.028Z,30.02
2022-12-12T20:13:51.054Z,31.30
2022-12-12T20:15:53.327Z,26.58
2022-12-12T20:18:00.095Z,28.65
2022-12-12T20:20:03.198Z,24.63
2022-12-12T20:22:05.354Z,24.17
2022-12-12T20:26:12.237Z,25.02
2022-12-12T20:28:14.381Z,26.23
2022-12-12T20:32:18.849Z,33.03
2022-12-12T20:34:22.635Z,27.77
2022-12-12T20:36:26.292Z,27.85
2022-12-12T20:38:29.792Z,35.10
2022-12-12T20:40:31.966Z,29.13
2022-12-12T20:44:36.215Z,30.35
2022-12-12T20:48:41.139Z,32.42
2022-12-12T20:50:43.269Z,38.75
2022-12-12T20:52:45.389Z,35.30
2022-12-12T20:54:47.567Z,40.10
2022-12-12T20:58:57.223Z,50.25
2022-12-12T21:00:59.606Z,33.33
2022-12-12T21:03:01.756Z,32.42
2022-12-12T21:07:07.753Z,23.95
2022-12-12T21:11:13.014Z,25.88
2022-12-12T21:13:15.168Z,25.90
2022-12-12T21:17:19.656Z,21.58
2022-12-12T21:21:25.676Z,24.40
2022-12-12T21:23:27.824Z,24.55
2022-12-12T21:27:32.120Z,21.52
2022-12-12T21:31:37.858Z,18.65
2022-12-12T21:33:40.139Z,21.60
2022-12-12T21:37:44.373Z,22.83
2022-12-12T21:41:48.764Z,21.25
2022-12-12T21:43:51.034Z,26.13
2022-12-12T21:45:53.221Z,24.30
2022-12-12T21:49:57.402Z,27.48
2022-12-12T21:54:01.680Z,18.25
2022-12-12T21:58:05.955Z,22.13
2022-12-12T22:02:13.513Z,18.38
2022-12-12T22:04:15.666Z,23.23
2022-12-12T22:08:19.917Z,21.98
2022-12-12T22:10:22.144Z,23.17
2022-12-12T22:14:26.547Z,20.98
2022-12-12T22:18:36.653Z,22.42
2022-12-12T22:20:38.810Z,23.83
2022-12-12T22:24:42.965Z,22.70
2022-12-12T22:28:47.669Z,26.75
2022-12-12T22:30:49.768Z,22.80
2022-12-12T22:34:53.975Z,22.70
2022-12-12T22:38:58.641Z,19.92
2022-12-12T22:41:01.043Z,17.88
2022-12-12T22:43:03.342Z,18.80
2022-12-12T22:45:05.707Z,18.50
2022-12-12T22:47:07.880Z,15.15
2022-12-12T22:51:13.589Z,19.70
2022-12-12T22:53:15.729Z,17.92
2022-12-12T22:57:19.951Z,16.88
2022-12-12T23:01:24.656Z,12.32
2022-12-12T23:03:26.764Z,19.55
2022-12-12T23:07:31.129Z,16.52
2022-12-12T23:09:33.324Z,19.05
2022-12-12T23:11:36.800Z,15.25
2022-12-12T23:13:39.276Z,15.43
2022-12-12T23:15:42.442Z,15.93
2022-12-12T23:17:44.550Z,11.80
2022-12-12T23:21:48.744Z,13.07
2022-12-12T23:25:52.933Z,14.32
2022-12-12T23:29:57.173Z,14.90
2022-12-12T23:34:06.466Z,11.00
2022-12-12T23:36:09.106Z,11.55
2022-12-12T23:38:11.280Z,13.85
2022-12-12T23:42:15.677Z,15.77
2022-12-12T23:44:18.874Z,19.98
2022-12-12T23:46:32.174Z,20.05
2022-12-12T23:48:34.833Z,21.63
2022-12-12T23:50:37.073Z,25.10
2022-12-12T23:52:39.168Z,22.35
2022-12-12T23:56:44.606Z,12.75
2022-12-12T23:58:46.854Z,13.60
